Time;durP1;ratioP1;P1;durP2;ratioP2;P2;SDS_P1;SDS_P2;PMS_P1;PMS_P2;Temp;Humidity;BMP_temperature;BMP_pressure;BME280_temperature;BME280_humidity;BME280_pressure;Samples;Min_cycle;Max_cycle;Signal;HPM_P1;HPM_P2
2023/04/17 00:00:00;;;;;;;2.97;1.90;;;9.10;99.90;;;8.32;100.00;102064.53;4135905;28;20031;-78
2023/04/17 00:02:02;;;;;;;3.17;2.00;;;9.10;99.90;;;8.32;100.00;102070.66;4135930;28;20418;-78
2023/04/17 00:04:03;;;;;;;5.03;2.63;;;9.10;99.90;;;8.33;100.00;102071.50;4137184;28;20026;-78
2023/04/17 00:06:05;;;;;;;3.70;2.33;;;9.10;99.90;;;8.37;100.00;102072.94;4135579;28;20040;-78
2023/04/17 00:08:06;;;;;;;4.82;2.20;;;9.10;99.90;;;8.39;100.00;102070.22;4137220;28;20018;-78
2023/04/17 00:10:09;;;;;;;4.35;2.17;;;9.20;99.90;;;8.38;100.00;102060.63;4137186;28;20033;-78
2023/04/17 00:12:10;;;;;;;2.53;2.28;;;9.20;99.90;;;8.35;100.00;102056.44;4135944;28;20030;-78
2023/04/17 00:14:11;;;;;;;3.47;2.20;;;9.10;99.90;;;8.31;100.00;102061.06;4126731;28;20030;-78
2023/04/17 00:16:12;;;;;;;4.38;2.10;;;9.10;99.90;;;8.30;100.00;102069.91;4135650;28;20034;-78
2023/04/17 00:18:13;;;;;;;2.97;2.35;;;9.10;99.90;;;8.27;100.00;102062.22;4136862;28;20505;-78
2023/04/17 00:20:14;;;;;;;3.88;1.95;;;9.10;99.90;;;8.19;100.00;102058.44;4136546;28;20034;-78
2023/04/17 00:22:15;;;;;;;4.40;2.80;;;9.00;99.90;;;8.15;100.00;102057.81;4135726;28;20041;-78
2023/04/17 00:24:16;;;;;;;4.60;2.38;;;9.00;99.90;;;8.16;100.00;102058.66;4127876;28;20450;-78
2023/04/17 00:26:18;;;;;;;5.32;2.42;;;8.90;99.90;;;8.14;100.00;102060.56;4132224;28;20030;-78
2023/04/17 00:28:19;;;;;;;4.25;2.15;;;8.90;99.90;;;8.11;100.00;102059.00;4136189;28;20500;-78
2023/04/17 00:30:20;;;;;;;4.93;2.20;;;8.90;99.90;;;7.98;100.00;102038.91;4135486;28;20030;-78
2023/04/17 00:32:21;;;;;;;5.15;2.35;;;8.90;99.90;;;8.08;100.00;102056.56;4136843;28;20019;-78
2023/04/17 00:34:21;;;;;;;4.68;3.00;;;8.90;99.90;;;8.11;100.00;102055.53;4135469;28;20081;-78
2023/04/17 00:36:22;;;;;;;5.10;3.10;;;8.90;99.90;;;8.20;100.00;102060.13;4133751;28;20509;-78
2023/04/17 00:38:23;;;;;;;3.60;3.00;;;8.90;99.90;;;8.26;100.00;102054.44;4135419;28;20517;-79
2023/04/17 00:40:24;;;;;;;8.60;3.13;;;9.00;99.90;;;8.36;100.00;102060.75;4136559;28;20042;-78
2023/04/17 00:42:25;;;;;;;6.10;2.47;;;9.10;99.90;;;8.43;100.00;102058.50;4135483;28;20533;-78
2023/04/17 00:44:26;;;;;;;6.47;4.53;;;9.10;99.90;;;8.45;100.00;102057.47;4121632;28;20042;-79
2023/04/17 00:46:27;;;;;;;6.65;5.03;;;9.20;99.90;;;8.50;100.00;102047.47;4123820;28;20022;-79
2023/04/17 00:48:28;;;;;;;4.35;2.90;;;9.20;99.90;;;8.55;100.00;102049.75;4127019;28;20030;-78
2023/04/17 00:50:30;;;;;;;3.83;2.78;;;9.30;99.90;;;8.61;100.00;102049.28;4134994;28;20022;-78
2023/04/17 00:52:31;;;;;;;4.43;2.28;;;9.30;99.90;;;8.62;100.00;102046.56;4136244;28;20105;-78
2023/04/17 00:54:32;;;;;;;4.22;2.15;;;9.40;99.90;;;8.67;100.00;102052.31;4135467;28;20398;-78
2023/04/17 00:56:33;;;;;;;2.72;1.85;;;9.40;99.90;;;8.61;100.00;102046.66;4127574;28;20031;-78
2023/04/17 00:58:36;;;;;;;7.32;2.63;;;9.40;99.90;;;8.59;100.00;102043.31;4135187;28;20097;-79
2023/04/17 01:00:37;;;;;;;3.70;2.30;;;9.40;99.90;;;8.56;100.00;102048.78;4133879;28;20045;-79
2023/04/17 01:02:38;;;;;;;2.72;1.95;;;9.30;99.90;;;8.52;100.00;102037.66;4135180;28;20030;-78
2023/04/17 01:04:39;;;;;;;4.38;2.30;;;9.30;99.90;;;8.50;100.00;102036.09;4126287;28;20031;-79
2023/04/17 01:06:40;;;;;;;2.72;2.30;;;9.30;99.90;;;8.47;100.00;102036.31;4134888;28;20070;-78
2023/04/17 01:08:43;;;;;;;2.88;2.42;;;9.20;99.90;;;8.39;100.00;102033.41;4132814;28;20161;-78
2023/04/17 01:10:44;;;;;;;4.53;2.78;;;9.20;99.90;;;8.43;100.00;102043.56;4151329;28;20022;-78
2023/04/17 01:12:48;;;;;;;5.13;2.30;;;9.20;99.90;;;8.46;100.00;102038.09;4151285;28;20030;-78
2023/04/17 01:14:50;;;;;;;4.75;2.28;;;9.20;99.90;;;8.46;100.00;102034.63;4135136;28;20041;-78
2023/04/17 01:16:51;;;;;;;4.65;2.60;;;9.20;99.90;;;8.53;100.00;102047.22;4135965;28;20121;-78
2023/04/17 01:18:52;;;;;;;5.07;2.63;;;9.30;99.90;;;8.55;100.00;102034.81;4135192;28;20029;-78
2023/04/17 01:20:53;;;;;;;6.53;4.53;;;9.30;99.90;;;8.61;100.00;102039.63;4127771;28;20565;-78
2023/04/17 01:22:54;;;;;;;7.00;5.25;;;9.30;99.90;;;8.66;100.00;102037.47;4150997;28;20405;-78
2023/04/17 01:24:55;;;;;;;5.25;4.28;;;9.40;99.90;;;8.73;100.00;102037.88;4134645;28;20510;-78
2023/04/17 01:26:56;;;;;;;7.53;5.28;;;9.50;99.90;;;8.76;100.00;102033.25;4124236;28;20054;-78
2023/04/17 01:28:58;;;;;;;7.53;5.40;;;9.50;99.90;;;8.78;100.00;102035.78;4134793;28;20433;-78
2023/04/17 01:30:59;;;;;;;6.78;5.47;;;9.50;99.90;;;8.80;100.00;102024.19;4134963;28;20018;-78
2023/04/17 01:33:00;;;;;;;7.93;6.18;;;9.60;99.90;;;8.82;100.00;102021.41;4134735;28;20533;-78
2023/04/17 01:35:02;;;;;;;7.93;5.45;;;9.60;99.90;;;8.88;100.00;102037.59;4123660;28;20072;-78
2023/04/17 01:37:03;;;;;;;8.60;5.70;;;9.60;99.90;;;8.91;100.00;102031.25;4134729;28;20034;-78
2023/04/17 01:39:04;;;;;;;7.78;5.63;;;9.60;99.90;;;8.93;100.00;102031.16;4134731;28;20596;-78
2023/04/17 01:41:08;;;;;;;6.97;5.43;;;9.70;99.90;;;8.94;100.00;102020.50;4136866;28;20038;-78
2023/04/17 01:43:09;;;;;;;8.95;6.22;;;9.70;99.90;;;8.97;100.00;102029.97;4133751;28;20031;-78
2023/04/17 01:45:10;;;;;;;7.20;6.47;;;9.70;99.90;;;8.96;100.00;102026.47;4123129;28;20533;-78
2023/04/17 01:47:11;;;;;;;8.80;6.70;;;9.70;99.90;;;8.91;100.00;102010.22;4123080;28;20064;-78
2023/04/17 01:49:13;;;;;;;13.20;7.47;;;9.70;99.90;;;8.97;100.00;102022.06;4135396;28;20038;-78
2023/04/17 01:51:13;;;;;;;9.45;7.40;;;9.70;99.90;;;8.94;100.00;102017.88;4125481;28;20019;-78
2023/04/17 01:53:14;;;;;;;9.52;6.57;;;9.70;99.90;;;8.96;100.00;102015.16;4138002;28;20507;-78
2023/04/17 01:55:15;;;;;;;7.47;6.07;;;9.70;99.90;;;8.98;100.00;102015.84;4133020;28;20430;-79
2023/04/17 01:57:16;;;;;;;8.75;6.32;;;9.70;99.90;;;8.95;100.00;102016.09;4139061;28;20033;-78
2023/04/17 01:59:17;;;;;;;11.25;5.75;;;9.70;99.90;;;8.98;100.00;102021.13;4139108;28;20046;-78
2023/04/17 02:01:18;;;;;;;5.60;4.47;;;9.70;99.90;;;8.92;100.00;102014.53;4137906;28;20082;-78
2023/04/17 02:03:19;;;;;;;6.55;3.22;;;9.70;99.90;;;8.83;100.00;102023.94;4147412;28;20025;-78
2023/04/17 02:05:20;;;;;;;3.83;2.88;;;9.60;99.90;;;8.76;100.00;102020.09;4137503;28;20561;-78
2023/04/17 02:07:21;;;;;;;4.55;2.80;;;9.60;99.90;;;8.65;100.00;102017.41;4137408;28;20018;-78
2023/04/17 02:09:22;;;;;;;3.08;2.65;;;9.50;99.90;;;8.60;100.00;102022.16;4131538;28;20410;-78
2023/04/17 02:11:23;;;;;;;3.97;3.22;;;9.40;99.90;;;8.53;100.00;102018.31;4133416;28;20027;-78
2023/04/17 02:13:24;;;;;;;5.70;3.53;;;9.40;99.90;;;8.44;100.00;102021.59;4138846;28;20446;-78
2023/04/17 02:15:25;;;;;;;7.82;4.47;;;9.30;99.90;;;8.36;100.00;102020.47;4138701;28;20027;-78
2023/04/17 02:17:26;;;;;;;7.68;4.75;;;9.20;99.90;;;8.31;100.00;102026.06;4137734;28;20072;-79
2023/04/17 02:19:27;;;;;;;5.43;4.00;;;9.10;99.90;;;8.27;100.00;102025.44;4130380;28;20532;-78
2023/04/17 02:21:27;;;;;;;5.43;4.90;;;9.00;99.90;;;8.21;100.00;102019.75;4138540;28;20037;-78
2023/04/17 02:23:28;;;;;;;6.97;4.75;;;9.00;99.90;;;8.22;100.00;102019.63;4137338;28;20628;-78
2023/04/17 02:25:29;;;;;;;5.63;4.80;;;9.00;99.90;;;8.20;100.00;102023.31;4128045;28;20039;-78
2023/04/17 02:27:30;;;;;;;7.10;4.28;;;8.90;99.90;;;8.12;100.00;102004.66;4137277;28;20023;-78
2023/04/17 02:29:31;;;;;;;8.32;5.28;;;8.80;99.90;;;8.13;100.00;102019.44;4137366;28;20529;-78
2023/04/17 02:31:32;;;;;;;6.25;4.65;;;8.90;99.90;;;8.06;100.00;102005.94;4138575;28;20019;-78
2023/04/17 02:33:35;;;;;;;7.53;5.13;;;8.80;99.90;;;8.00;100.00;102005.50;4137455;28;20516;-78
2023/04/17 02:35:36;;;;;;;7.50;5.43;;;8.80;99.90;;;7.97;100.00;102016.25;4130740;28;20113;-78
2023/04/17 02:37:37;;;;;;;6.72;5.28;;;8.80;99.90;;;7.93;100.00;102020.03;4137206;28;20030;-78
2023/04/17 02:39:38;;;;;;;6.05;4.78;;;8.70;99.90;;;7.89;100.00;102008.03;4137076;28;20421;-78
2023/04/17 02:41:39;;;;;;;8.13;5.97;;;8.70;99.90;;;7.84;100.00;102013.63;4138586;28;20108;-78
2023/04/17 02:43:40;;;;;;;8.00;7.03;;;8.60;99.90;;;7.80;100.00;102010.38;4129992;28;20070;-78
2023/04/17 02:45:40;;;;;;;14.05;7.90;;;8.60;99.90;;;7.73;100.00;102000.41;4135983;28;20120;-78
2023/04/17 02:47:41;;;;;;;10.82;7.50;;;8.50;99.90;;;7.65;100.00;101998.31;4119884;28;20034;-78
2023/04/17 02:49:42;;;;;;;11.98;7.55;;;8.50;99.90;;;7.65;100.00;102002.72;4124565;28;20027;-78
2023/04/17 02:51:43;;;;;;;9.55;7.95;;;8.40;99.90;;;7.59;100.00;102003.97;4143269;28;20545;-79
2023/04/17 02:53:44;;;;;;;9.88;7.15;;;8.40;99.90;;;7.52;100.00;101996.66;4137246;28;20030;-78
2023/04/17 02:55:45;;;;;;;8.30;6.40;;;8.30;99.90;;;7.47;100.00;101996.94;4136093;28;20062;-78
2023/04/17 02:57:46;;;;;;;7.30;5.28;;;8.30;99.90;;;7.45;100.00;102005.88;4136087;28;20061;-78
2023/04/17 02:59:47;;;;;;;6.55;5.20;;;8.20;99.90;;;7.31;100.00;102001.59;4137270;28;20038;-78
2023/04/17 03:01:49;;;;;;;7.68;5.03;;;8.10;99.90;;;7.31;100.00;102006.84;4135993;28;20041;-78
2023/04/17 03:03:51;;;;;;;6.90;5.07;;;8.10;99.90;;;7.22;100.00;102002.22;4133456;28;20093;-78
2023/04/17 03:05:52;;;;;;;9.45;5.78;;;8.10;99.90;;;7.17;100.00;102007.75;4123421;28;20383;-79
2023/04/17 03:07:52;;;;;;;8.07;5.82;;;8.00;99.90;;;7.16;100.00;102006.09;4135908;28;20033;-78
2023/04/17 03:09:56;;;;;;;9.18;6.97;;;8.00;99.90;;;7.15;100.00;102016.66;4137027;28;20474;-78
2023/04/17 03:11:57;;;;;;;10.90;7.18;;;7.90;99.90;;;7.10;100.00;102011.75;4135442;28;20031;-77
2023/04/17 03:13:58;;;;;;;11.50;6.22;;;7.90;99.90;;;7.05;100.00;102010.34;4123541;28;20034;-79
2023/04/17 03:16:00;;;;;;;9.23;5.78;;;7.80;99.90;;;7.06;100.00;102017.28;4119597;28;20023;-78
2023/04/17 03:18:01;;;;;;;9.23;5.28;;;7.80;99.90;;;7.00;100.00;102013.28;4131109;28;20026;-78
2023/04/17 03:20:02;;;;;;;11.75;5.45;;;7.80;99.90;;;6.97;100.00;102023.13;4136866;28;20019;-78
2023/04/17 03:22:03;;;;;;;8.63;5.55;;;7.70;99.90;;;6.91;100.00;102013.91;4137237;28;20033;-78
2023/04/17 03:24:05;;;;;;;6.68;4.93;;;7.70;99.90;;;6.91;100.00;102015.69;4136976;28;20022;-78
2023/04/17 03:26:06;;;;;;;5.95;5.07;;;7.70;99.90;;;6.89;100.00;102007.94;4135772;28;20030;-78
2023/04/17 03:28:07;;;;;;;6.85;5.80;;;7.70;99.90;;;6.90;100.00;102014.03;4132859;28;20029;-78
2023/04/17 03:30:08;;;;;;;6.72;5.68;;;7.70;99.90;;;6.89;100.00;102021.03;4124285;28;20031;-78
2023/04/17 03:32:09;;;;;;;6.47;5.30;;;7.70;99.90;;;6.86;100.00;102026.50;4135767;28;20529;-78
2023/04/17 03:34:10;;;;;;;8.35;5.28;;;7.70;99.90;;;6.86;100.00;102017.78;4113079;28;20027;-78
2023/04/17 03:36:11;;;;;;;11.23;6.20;;;7.70;99.90;;;6.89;100.00;102021.03;4135148;28;20070;-77
2023/04/17 03:38:12;;;;;;;8.35;6.22;;;7.70;99.90;;;6.88;100.00;102018.50;4120813;28;20031;-78
2023/04/17 03:40:13;;;;;;;7.10;5.03;;;7.70;99.90;;;6.91;100.00;102021.75;4126003;28;20517;-78
2023/04/17 03:42:14;;;;;;;7.13;5.18;;;7.70;99.90;;;6.89;100.00;102018.41;4128879;28;20093;-78
2023/04/17 03:44:16;;;;;;;9.98;5.18;;;7.70;99.90;;;6.90;100.00;102027.94;4094942;28;1180025;-78
2023/04/17 03:46:16;;;;;;;7.75;5.47;;;7.70;99.90;;;6.85;100.00;102018.69;4137430;28;20034;-78
2023/04/17 03:48:17;;;;;;;5.18;4.68;;;7.70;99.90;;;6.84;100.00;102030.97;4136449;28;20033;-78
2023/04/17 03:50:18;;;;;;;5.50;4.88;;;7.60;99.90;;;6.80;100.00;102023.41;4130365;28;20114;-78
2023/04/17 03:52:19;;;;;;;6.47;5.40;;;7.60;99.90;;;6.76;100.00;102014.06;4136099;28;20073;-79
2023/04/17 03:54:20;;;;;;;11.30;7.00;;;7.60;99.90;;;6.72;100.00;102016.03;4121710;28;20454;-78
2023/04/17 03:56:21;;;;;;;15.23;8.52;;;7.50;99.90;;;6.73;100.00;102014.25;4121439;28;20038;-79
2023/04/17 03:58:22;;;;;;;9.88;6.43;;;7.50;99.90;;;6.69;100.00;102014.47;4128868;28;20026;-78
2023/04/17 04:00:23;;;;;;;8.65;6.03;;;7.50;99.90;;;6.63;100.00;102012.25;4132038;28;20442;-78
2023/04/17 04:02:24;;;;;;;7.63;5.80;;;7.50;99.90;;;6.62;100.00;102018.44;4133103;28;20034;-78
2023/04/17 04:04:25;;;;;;;8.43;6.20;;;7.40;99.90;;;6.57;100.00;102024.94;4124492;28;20588;-78
2023/04/17 04:06:28;;;;;;;6.80;6.07;;;7.40;99.90;;;6.52;100.00;102022.59;4135701;28;20026;-78
2023/04/17 04:08:29;;;;;;;6.85;5.70;;;7.40;99.90;;;6.47;100.00;102024.66;4135857;28;20145;-78
2023/04/17 04:10:31;;;;;;;7.20;5.63;;;7.30;99.90;;;6.42;100.00;102016.25;4136873;28;20078;-78
2023/04/17 04:12:32;;;;;;;7.22;6.28;;;7.30;99.90;;;6.41;100.00;102021.59;4135276;28;20015;-78
2023/04/17 04:14:33;;;;;;;7.22;6.00;;;7.20;99.90;;;6.39;100.00;102031.34;4127185;28;20082;-78
2023/04/17 04:16:34;;;;;;;7.65;5.57;;;7.20;99.90;;;6.33;100.00;102023.88;4135499;28;20023;-78
2023/04/17 04:18:36;;;;;;;7.07;5.72;;;7.20;99.90;;;6.26;100.00;102017.31;4135682;28;20061;-78
2023/04/17 04:20:36;;;;;;;6.30;5.43;;;7.20;99.90;;;6.27;100.00;102032.13;4119566;28;20093;-78
2023/04/17 04:22:37;;;;;;;6.50;5.78;;;7.10;99.90;;;6.20;100.00;102026.41;4122745;28;20035;-78
2023/04/17 04:24:39;;;;;;;8.10;5.80;;;7.00;99.90;;;6.21;100.00;102025.50;4131042;28;20030;-78
2023/04/17 04:26:40;;;;;;;8.77;5.88;;;7.00;99.90;;;6.17;100.00;102029.22;4135475;28;20084;-78
2023/04/17 04:28:42;;;;;;;8.38;5.95;;;7.00;99.90;;;6.07;100.00;102017.63;4136574;28;20386;-78
2023/04/17 04:30:49;;;;;;;7.32;6.10;;;7.00;99.90;;;6.09;100.00;102024.47;4135197;28;20041;-78
2023/04/17 04:32:50;;;;;;;6.65;5.50;;;6.90;99.90;;;5.95;100.00;102014.00;4123489;28;20494;-78
2023/04/17 04:34:51;;;;;;;7.28;5.82;;;6.80;99.90;;;5.99;100.00;102027.75;4105431;28;20031;-79
2023/04/17 04:36:51;;;;;;;8.25;6.20;;;6.80;99.90;;;5.96;100.00;102020.09;4136773;28;20371;-78
2023/04/17 04:38:52;;;;;;;7.05;5.70;;;6.80;99.90;;;5.96;100.00;102022.72;4136592;28;20061;-78
2023/04/17 04:41:00;;;;;;;7.78;6.82;;;6.80;99.90;;;5.86;100.00;102000.63;4136670;28;20046;-79
2023/04/17 04:43:01;;;;;;;7.70;5.72;;;6.80;99.90;;;5.96;100.00;102020.09;4151531;28;20433;-78
2023/04/17 04:45:03;;;;;;;7.32;5.93;;;6.80;99.90;;;5.96;100.00;102015.69;4135246;28;20077;-78
2023/04/17 04:47:05;;;;;;;11.43;8.18;;;6.70;99.90;;;5.96;100.00;102020.94;4124727;28;20030;-78
2023/04/17 04:49:05;;;;;;;8.70;6.80;;;6.70;99.90;;;5.97;100.00;102024.41;4120534;28;20085;-78
2023/04/17 04:51:06;;;;;;;10.05;6.43;;;6.70;99.90;;;5.94;100.00;102024.59;4134839;28;20026;-79
2023/04/17 04:53:07;;;;;;;9.85;6.07;;;6.80;99.90;;;5.94;100.00;102025.41;4127110;28;20130;-78
2023/04/17 04:55:08;;;;;;;6.07;5.22;;;6.70;99.90;;;5.89;100.00;102021.41;4129762;28;20034;-78
2023/04/17 04:57:09;;;;;;;9.07;6.32;;;6.70;99.90;;;5.85;100.00;102023.38;4135214;28;20559;-78
2023/04/17 04:59:10;;;;;;;7.40;6.05;;;6.70;99.90;;;5.85;100.00;102019.88;4134622;28;20030;-78
2023/04/17 05:01:11;;;;;;;7.57;5.13;;;6.70;99.90;;;5.84;100.00;102033.91;4135246;28;20026;-78
2023/04/17 05:03:12;;;;;;;8.50;5.82;;;6.60;99.90;;;5.84;100.00;102036.53;4126085;28;20039;-78
2023/04/17 05:05:13;;;;;;;6.90;5.85;;;6.60;99.90;;;5.83;100.00;102038.28;4134891;28;20037;-79
2023/04/17 05:07:17;;;;;;;8.18;6.10;;;6.60;99.90;;;5.77;100.00;102030.81;4120254;28;20035;-78
2023/04/17 05:09:18;;;;;;;8.60;5.93;;;6.60;99.90;;;5.79;100.00;102041.22;4120186;28;20105;-79
2023/04/17 05:11:19;;;;;;;7.07;5.88;;;6.60;99.90;;;5.77;100.00;102043.06;4112107;28;20027;-77
2023/04/17 05:13:20;;;;;;;7.22;6.03;;;6.60;99.90;;;5.76;100.00;102055.34;4118894;28;20378;-77
2023/04/17 05:15:21;;;;;;;6.50;5.85;;;6.60;99.90;;;5.70;100.00;102052.25;4134806;28;20027;-78
2023/04/17 05:17:21;;;;;;;6.60;5.68;;;6.50;99.90;;;5.69;100.00;102045.31;4136117;28;20026;-78
2023/04/17 05:19:22;;;;;;;7.50;5.95;;;6.50;99.90;;;5.76;100.00;102062.34;4135739;28;20033;-78
2023/04/17 05:21:24;;;;;;;10.07;5.40;;;6.50;99.90;;;5.75;100.00;102064.13;4133525;28;20026;-78
2023/04/17 05:23:25;;;;;;;9.40;6.55;;;6.60;99.90;;;5.75;100.00;102071.13;4131693;28;20042;-79
2023/04/17 05:25:25;;;;;;;10.27;6.22;;;6.50;99.90;;;5.77;100.00;102071.84;4118748;28;20105;-78
2023/04/17 05:27:26;;;;;;;9.63;6.07;;;6.50;99.90;;;5.73;100.00;102066.00;4134931;28;20077;-78
2023/04/17 05:29:27;;;;;;;8.50;6.35;;;6.60;99.90;;;5.76;100.00;102072.81;4119999;28;20027;-78
2023/04/17 05:31:28;;;;;;;13.73;7.63;;;6.50;99.90;;;5.77;100.00;102079.72;4120195;28;20026;-78
2023/04/17 05:33:29;;;;;;;9.65;6.03;;;6.50;99.90;;;5.73;100.00;102078.22;4136016;28;20394;-78
2023/04/17 05:35:30;;;;;;;11.18;8.13;;;6.50;99.90;;;5.74;100.00;102074.66;4134557;28;20483;-78
2023/04/17 05:37:30;;;;;;;12.98;10.10;;;6.50;99.90;;;5.81;100.00;102081.22;4139819;28;20038;-78
2023/04/17 05:39:31;;;;;;;14.48;9.55;;;6.60;99.90;;;5.91;100.00;102090.25;4134546;28;20035;-78
2023/04/17 05:41:32;;;;;;;12.82;10.38;;;6.60;99.90;;;5.93;100.00;102088.38;4124311;28;20502;-78
2023/04/17 05:43:33;;;;;;;12.50;9.85;;;6.60;99.90;;;6.02;100.00;102088.66;4126038;28;20045;-78
2023/04/17 05:45:34;;;;;;;10.80;9.43;;;6.70;99.90;;;6.06;100.00;102091.94;4150751;28;20405;-79
2023/04/17 05:47:35;;;;;;;10.55;9.30;;;6.80;99.90;;;5.96;100.00;102065.47;4118625;28;20122;-79
2023/04/17 05:49:36;;;;;;;12.57;9.60;;;6.80;99.90;;;6.14;100.00;102092.28;4150603;28;20022;-79
2023/04/17 05:51:37;;;;;;;12.35;9.20;;;6.90;99.90;;;6.19;100.00;102092.00;4134467;28;20034;-79
2023/04/17 05:53:38;;;;;;;8.13;7.15;;;6.90;99.90;;;6.22;100.00;102097.91;4125607;28;20078;-79
2023/04/17 05:55:39;;;;;;;9.02;6.97;;;6.90;99.90;;;6.20;100.00;102097.16;4119646;28;20030;-79
2023/04/17 05:57:40;;;;;;;11.15;8.10;;;7.00;99.90;;;6.23;100.00;102093.50;4119874;28;20395;-79
2023/04/17 05:59:41;;;;;;;9.68;8.23;;;7.00;99.90;;;6.25;100.00;102092.47;4118437;28;20031;-79
2023/04/17 06:01:42;;;;;;;10.35;8.32;;;7.00;99.90;;;6.26;100.00;102091.53;4121249;28;20030;-79
2023/04/17 06:03:43;;;;;;;11.48;9.23;;;7.00;99.90;;;6.35;100.00;102108.47;4135678;28;20026;-79
2023/04/17 06:05:45;;;;;;;10.95;8.70;;;7.10;99.90;;;6.38;100.00;102103.88;4134140;28;20434;-78
2023/04/17 06:07:46;;;;;;;12.07;7.95;;;7.10;99.90;;;6.40;100.00;102103.75;4126683;28;20037;-80
2023/04/17 06:09:47;;;;;;;8.57;6.55;;;7.20;99.90;;;6.47;100.00;102102.47;4150881;28;20026;-79
2023/04/17 06:11:48;;;;;;;7.50;6.20;;;7.20;99.90;;;6.45;100.00;102099.91;4134383;28;20035;-79
2023/04/17 06:13:49;;;;;;;10.68;6.72;;;7.20;99.90;;;6.48;100.00;102101.53;4134660;28;20073;-80
2023/04/17 06:15:50;;;;;;;12.55;8.23;;;7.20;99.90;;;6.54;100.00;102106.38;4134539;28;20033;-80
2023/04/17 06:17:51;;;;;;;12.52;8.98;;;7.30;99.90;;;6.67;100.00;102110.75;4134446;28;20069;-81
2023/04/17 06:19:52;;;;;;;9.73;8.10;;;7.40;99.90;;;6.81;100.00;102122.16;4133699;28;20065;-79
2023/04/17 06:21:52;;;;;;;9.82;7.70;;;7.50;99.90;;;6.95;100.00;102114.22;4132689;28;20089;-80
2023/04/17 06:23:53;;;;;;;11.90;8.52;;;7.60;99.90;;;7.15;100.00;102121.63;4134325;28;20033;-80
2023/04/17 06:25:54;;;;;;;10.10;7.75;;;7.80;99.90;;;7.29;100.00;102118.94;4136017;28;20026;-80
2023/04/17 06:27:55;;;;;;;8.88;7.20;;;7.90;99.90;;;7.44;100.00;102123.16;4137237;28;20164;-79
2023/04/17 06:29:56;;;;;;;7.00;5.65;;;8.10;99.90;;;7.57;100.00;102123.19;4137834;28;20033;-80
2023/04/17 06:31:57;;;;;;;6.68;5.20;;;8.20;99.90;;;7.69;100.00;102125.84;4137524;28;20026;-79
2023/04/17 06:33:57;;;;;;;7.03;5.20;;;8.30;99.90;;;7.82;100.00;102122.38;4112228;28;20058;-80
2023/04/17 06:35:58;;;;;;;7.35;5.40;;;8.40;99.90;;;7.95;100.00;102120.59;4134076;28;20026;-80
2023/04/17 06:37:59;;;;;;;6.10;5.50;;;8.60;99.90;;;8.13;100.00;102127.19;4137164;28;20027;-80
2023/04/17 06:40:00;;;;;;;6.30;5.18;;;8.80;99.90;;;8.32;100.00;102131.13;4138522;28;20101;-79
2023/04/17 06:42:01;;;;;;;7.32;5.72;;;9.00;99.90;;;8.52;100.00;102128.84;4134219;28;20022;-80
2023/04/17 06:44:02;;;;;;;6.57;5.50;;;9.20;99.90;;;8.70;100.00;102127.53;4126092;28;20412;-80
2023/04/17 06:46:03;;;;;;;7.43;6.47;;;9.40;99.90;;;8.96;100.00;102138.84;4120871;28;20058;-79
2023/04/17 06:48:04;;;;;;;8.88;5.30;;;9.60;99.90;;;9.14;100.00;102130.41;4122198;28;20037;-79
2023/04/17 06:50:06;;;;;;;6.57;5.47;;;9.80;99.90;;;9.33;100.00;102140.44;4121914;28;20034;-80
2023/04/17 06:52:07;;;;;;;6.82;4.63;;;10.00;99.90;;;9.51;100.00;102140.84;4126397;28;20430;-82
2023/04/17 06:54:09;;;;;;;8.15;5.88;;;10.20;99.90;;;9.56;100.00;102129.00;4138060;28;20078;-79
2023/04/17 06:56:10;;;;;;;5.63;4.60;;;10.30;99.90;;;9.79;100.00;102136.03;4136820;28;20037;-79
2023/04/17 06:58:11;;;;;;;6.38;4.93;;;10.50;99.90;;;10.02;100.00;102145.66;4111601;28;20027;-79
2023/04/17 07:00:13;;;;;;;8.75;6.65;;;10.60;99.90;;;10.11;100.00;102135.34;4137930;28;20030;-78
2023/04/17 07:02:14;;;;;;;8.98;5.65;;;10.80;99.90;;;10.28;100.00;102143.66;4137402;28;20066;-80
2023/04/17 07:04:16;;;;;;;7.60;6.10;;;10.90;99.90;;;10.41;100.00;102138.25;4121920;28;20053;-81
2023/04/17 07:06:18;;;;;;;9.68;6.63;;;11.00;99.90;;;10.57;100.00;102138.72;4122641;28;20038;-80
2023/04/17 07:08:21;;;;;;;6.75;5.68;;;11.20;99.90;;;10.80;100.00;102140.38;4131315;28;20099;-81
2023/04/17 07:10:22;;;;;;;7.28;5.40;;;11.40;99.90;;;11.14;100.00;102140.28;4136351;28;20034;-81
2023/04/17 07:12:23;;;;;;;7.40;6.05;;;11.60;99.90;;;11.20;100.00;102135.31;4110834;28;20030;-81
2023/04/17 07:14:24;;;;;;;6.25;5.10;;;11.80;99.90;;;11.35;100.00;102146.44;4129179;28;20034;-80
2023/04/17 07:16:24;;;;;;;7.85;6.53;;;11.90;99.90;;;11.32;100.00;102147.50;4137895;28;20034;-81
2023/04/17 07:18:28;;;;;;;10.50;6.80;;;12.00;99.90;;;11.11;100.00;102130.78;4136596;28;20043;-81
2023/04/17 07:20:29;;;;;;;8.20;5.82;;;12.00;99.90;;;10.93;100.00;102125.19;4125689;28;20084;-81
2023/04/17 07:22:30;;;;;;;8.10;6.72;;;12.00;99.90;;;10.97;100.00;102136.34;4137827;28;20549;-81
2023/04/17 07:24:34;;;;;;;7.50;5.85;;;11.90;99.90;;;10.95;100.00;102128.56;4136826;28;20085;-81
2023/04/17 07:26:36;;;;;;;;;;;11.90;99.90;;;10.89;100.00;102149.34;4136799;28;20041;-80
2023/04/17 07:28:38;;;;;;;7.82;5.80;;;11.80;99.90;;;10.86;100.00;102137.22;4124670;28;19945;-81
2023/04/17 07:30:40;;;;;;;8.93;6.53;;;11.80;99.90;;;10.76;100.00;102143.34;4136539;28;20019;-81
2023/04/17 07:32:41;;;;;;;7.53;5.30;;;11.60;99.90;;;10.76;100.00;102138.91;4137627;28;20441;-81
2023/04/17 07:34:42;;;;;;;10.20;6.78;;;11.60;99.90;;;10.81;100.00;102147.31;4123023;28;20019;-81
2023/04/17 07:36:43;;;;;;;10.32;6.40;;;11.50;99.90;;;10.80;100.00;102144.78;4152588;28;20057;-81
2023/04/17 07:38:43;;;;;;;9.80;7.10;;;11.50;99.90;;;10.86;100.00;102139.03;4136879;28;20081;-81
2023/04/17 07:40:44;;;;;;;12.07;7.35;;;11.50;99.90;;;10.86;100.00;102154.88;4136824;28;20041;-81
2023/04/17 07:42:45;;;;;;;11.38;6.85;;;11.60;99.90;;;10.92;100.00;102149.94;4133713;28;20022;-81
2023/04/17 07:44:47;;;;;;;11.02;6.68;;;11.60;99.90;;;10.82;100.00;102130.50;4137257;28;20050;-81
2023/04/17 07:46:48;;;;;;;7.55;6.25;;;11.70;99.90;;;10.94;100.00;102158.56;4137770;28;20037;-81
2023/04/17 07:48:49;;;;;;;10.38;6.10;;;11.70;99.90;;;10.91;100.00;102153.53;4136192;28;20062;-81
2023/04/17 07:50:50;;;;;;;8.98;6.13;;;11.70;99.90;;;10.90;100.00;102141.28;4133796;28;20402;-81
2023/04/17 07:52:51;;;;;;;10.00;6.22;;;11.80;99.90;;;10.86;100.00;102145.16;4125214;28;20395;-81
2023/04/17 07:54:52;;;;;;;8.57;6.00;;;11.70;99.90;;;10.89;99.63;102154.63;4128533;28;20034;-81
2023/04/17 07:56:57;;;;;;;12.00;6.95;;;11.70;99.90;;;10.81;99.33;102142.03;4136089;28;20554;-82
2023/04/17 07:58:58;;;;;;;9.52;6.07;;;11.70;99.90;;;10.85;99.12;102143.47;4133527;28;20022;-82
2023/04/17 08:01:00;;;;;;;10.30;6.10;;;11.70;99.90;;;10.91;99.33;102153.53;4125505;28;20026;-81
2023/04/17 08:03:01;;;;;;;10.32;5.95;;;11.70;99.90;;;10.99;100.00;102150.28;4128306;28;20027;-81
2023/04/17 08:05:04;;;;;;;8.25;6.20;;;11.70;99.90;;;11.02;100.00;102160.59;4130306;28;20458;-81
2023/04/17 08:07:06;;;;;;;10.23;5.35;;;11.80;99.90;;;11.05;99.58;102150.59;4133928;28;20022;-82
2023/04/17 08:09:07;;;;;;;11.43;5.93;;;11.80;99.90;;;10.97;98.45;102150.38;4137144;28;20486;-81
2023/04/17 08:11:08;;;;;;;12.85;6.15;;;11.80;99.90;;;11.11;98.53;102154.53;4137218;28;20112;-82
2023/04/17 08:13:09;;;;;;;10.48;5.82;;;11.80;99.90;;;11.21;98.33;102150.19;4136921;28;20034;-81
2023/04/17 08:15:10;;;;;;;7.50;4.75;;;11.80;99.90;;;11.43;98.31;102159.84;4119447;28;20549;-81
2023/04/17 08:17:11;;;;;;;6.90;4.50;;;11.90;99.90;;;11.69;98.65;102161.16;4139818;28;20033;-81
2023/04/17 08:19:12;;;;;;;10.45;5.20;;;12.00;99.90;;;11.72;96.61;102158.28;4127523;28;20019;-81
2023/04/17 08:21:13;;;;;;;8.57;5.35;;;12.20;99.90;;;11.83;95.75;102152.06;4136535;28;20073;-81
2023/04/17 08:23:14;;;;;;;7.50;5.57;;;12.20;99.90;;;11.91;94.92;102157.56;4136700;28;20026;-81
2023/04/17 08:25:15;;;;;;;6.90;5.57;;;12.30;99.90;;;11.90;93.65;102130.28;4135725;28;20034;-81